createdAt,value
2018-07-08T02:42:56.133Z,19.58
2018-07-08T02:45:25.337Z,19.57
2018-07-08T02:47:54.695Z,19.58
2018-07-08T02:50:23.786Z,19.57
2018-07-08T02:52:53.063Z,19.57
2018-07-08T02:55:22.379Z,19.59
2018-07-08T02:57:51.437Z,19.62
2018-07-08T03:00:20.649Z,19.59
2018-07-08T03:02:49.783Z,19.65
2018-07-08T03:05:18.536Z,19.78
2018-07-08T03:07:47.781Z,19.83
2018-07-08T03:10:16.689Z,19.87
2018-07-08T03:12:45.888Z,19.89
2018-07-08T03:15:15.223Z,19.85
2018-07-08T03:17:44.213Z,19.80
2018-07-08T03:20:13.378Z,19.80
2018-07-08T03:22:42.451Z,19.82
2018-07-08T03:25:11.491Z,19.86
2018-07-08T03:27:40.815Z,19.89
2018-07-08T03:30:09.955Z,19.94
2018-07-08T03:32:39.210Z,19.97
2018-07-08T03:35:08.580Z,20.07
2018-07-08T03:37:37.737Z,20.09
2018-07-08T03:40:06.997Z,20.05
2018-07-08T03:42:36.264Z,19.89
2018-07-08T03:45:05.560Z,20.05
2018-07-08T03:47:34.547Z,20.04
2018-07-08T03:50:03.892Z,20.09
2018-07-08T03:52:33.163Z,20.12
2018-07-08T03:55:02.370Z,20.21
2018-07-08T03:57:31.485Z,20.27
2018-07-08T04:00:00.680Z,20.30
2018-07-08T04:02:29.470Z,20.43
2018-07-08T04:04:58.714Z,20.50
2018-07-08T04:07:27.794Z,20.62
2018-07-08T04:09:56.894Z,20.67
2018-07-08T04:12:26.107Z,20.66
2018-07-08T04:14:55.302Z,20.67
2018-07-08T04:17:24.433Z,20.65
2018-07-08T04:19:55.583Z,20.63
2018-07-08T04:22:24.456Z,20.59
2018-07-08T04:24:53.721Z,20.59
2018-07-08T04:27:22.804Z,20.58
2018-07-08T04:29:51.754Z,20.56
2018-07-08T04:32:21.046Z,20.56
2018-07-08T04:34:50.158Z,20.51
2018-07-08T04:37:18.969Z,20.46
2018-07-08T04:39:48.078Z,20.33
2018-07-08T04:42:17.416Z,20.19
2018-07-08T04:44:46.369Z,20.11
2018-07-08T04:47:15.674Z,20.08
2018-07-08T04:49:44.831Z,20.16
2018-07-08T04:52:13.959Z,20.21
2018-07-08T04:54:43.206Z,20.29
2018-07-08T04:57:12.198Z,20.38
2018-07-08T04:59:40.993Z,20.46
2018-07-08T05:02:10.137Z,20.60
2018-07-08T05:04:39.415Z,20.76
2018-07-08T05:07:08.718Z,20.97
2018-07-08T05:09:37.979Z,21.14
2018-07-08T05:12:06.818Z,21.25
2018-07-08T05:14:35.799Z,21.35
2018-07-08T05:17:05.160Z,21.40
2018-07-08T05:19:34.295Z,21.32
2018-07-08T05:22:03.426Z,21.17
2018-07-08T05:24:32.904Z,21.05
2018-07-08T05:27:02.267Z,20.85
2018-07-08T05:29:31.975Z,20.78
2018-07-08T05:32:01.484Z,20.79
2018-07-08T05:34:30.505Z,20.80
2018-07-08T05:36:59.701Z,20.81
2018-07-08T05:39:28.778Z,20.93
2018-07-08T05:41:57.958Z,20.98
2018-07-08T05:44:27.104Z,21.03
2018-07-08T05:46:56.259Z,21.05
2018-07-08T05:49:25.165Z,21.09
2018-07-08T05:51:54.253Z,21.07
2018-07-08T05:54:23.515Z,21.01
2018-07-08T05:56:52.775Z,21.08
2018-07-08T05:59:22.019Z,21.12
2018-07-08T06:01:51.158Z,21.25
2018-07-08T06:04:20.510Z,21.39
2018-07-08T06:06:50.131Z,21.44
2018-07-08T06:09:19.034Z,21.56
2018-07-08T06:11:47.830Z,21.66
2018-07-08T06:14:17.044Z,21.66
2018-07-08T06:16:45.897Z,21.67
2018-07-08T06:19:15.107Z,21.75
2018-07-08T06:21:44.322Z,21.83
2018-07-08T06:24:13.532Z,21.89
2018-07-08T06:26:42.251Z,21.93
2018-07-08T06:29:11.553Z,21.98
2018-07-08T06:31:40.728Z,22.02
2018-07-08T06:34:09.986Z,22.05
2018-07-08T06:36:39.154Z,22.08
2018-07-08T06:39:08.378Z,22.07
2018-07-08T06:41:37.576Z,22.09
2018-07-08T06:44:06.633Z,22.09
2018-07-08T06:46:35.693Z,22.05
2018-07-08T06:49:04.751Z,22.03
2018-07-08T06:51:34.006Z,22.02
2018-07-08T06:54:03.312Z,22.05
2018-07-08T06:56:32.276Z,22.09
2018-07-08T06:59:01.711Z,22.13
2018-07-08T07:01:30.658Z,22.20
2018-07-08T07:03:59.968Z,22.28
2018-07-08T07:06:29.179Z,22.35
2018-07-08T07:08:58.351Z,22.36
2018-07-08T07:11:27.599Z,22.35
2018-07-08T07:13:56.543Z,22.30
2018-07-08T07:16:25.427Z,22.21
2018-07-08T07:18:54.540Z,22.12
2018-07-08T07:21:23.758Z,22.01
2018-07-08T07:23:53.059Z,21.88
2018-07-08T07:26:22.398Z,21.78
2018-07-08T07:28:51.295Z,21.76
2018-07-08T07:31:20.637Z,21.70
2018-07-08T07:33:49.836Z,21.69
2018-07-08T07:36:19.082Z,21.64
2018-07-08T07:38:48.188Z,21.62
2018-07-08T07:41:17.242Z,21.62
2018-07-08T07:43:46.209Z,21.61
2018-07-08T07:46:15.130Z,21.62
2018-07-08T07:48:44.203Z,21.63
2018-07-08T07:51:13.039Z,21.66
2018-07-08T07:53:42.271Z,21.70
2018-07-08T07:56:11.227Z,21.77
2018-07-08T07:58:40.111Z,21.92
2018-07-08T08:01:09.530Z,22.22
2018-07-08T08:03:38.306Z,22.51
2018-07-08T08:06:07.584Z,22.69
2018-07-08T08:08:36.956Z,22.83
2018-07-08T08:11:06.069Z,22.95
2018-07-08T08:13:35.274Z,23.04
2018-07-08T08:16:04.347Z,22.97
2018-07-08T08:18:33.495Z,22.80
2018-07-08T08:21:02.799Z,22.74
2018-07-08T08:23:32.123Z,22.72
2018-07-08T08:26:01.026Z,22.85
2018-07-08T08:28:29.984Z,22.89
2018-07-08T08:30:59.182Z,23.06
2018-07-08T08:33:28.776Z,23.21
2018-07-08T08:35:57.931Z,23.38
2018-07-08T08:38:27.219Z,23.55
2018-07-08T08:40:56.408Z,23.47
2018-07-08T08:43:25.611Z,23.59
2018-07-08T08:45:54.447Z,23.68
2018-07-08T08:48:23.647Z,23.66
2018-07-08T08:50:52.790Z,23.64
2018-07-08T08:53:21.938Z,23.71
2018-07-08T08:55:51.541Z,23.76
2018-07-08T08:58:20.630Z,23.75
2018-07-08T09:00:49.680Z,23.71
2018-07-08T09:03:18.558Z,23.70
2018-07-08T09:05:47.680Z,23.78
2018-07-08T09:08:16.965Z,23.80
2018-07-08T09:10:45.790Z,23.80
2018-07-08T09:13:19.355Z,23.83
2018-07-08T09:15:48.535Z,23.92
2018-07-08T09:18:17.834Z,24.11
2018-07-08T09:20:47.094Z,24.43
2018-07-08T09:23:16.199Z,24.76
2018-07-08T09:25:45.297Z,25.07
2018-07-08T09:28:14.481Z,25.39
2018-07-08T09:30:43.557Z,25.67
2018-07-08T09:33:12.511Z,25.85
2018-07-08T09:35:41.647Z,26.01
2018-07-08T09:38:10.887Z,26.16
2018-07-08T09:40:40.104Z,26.35
2018-07-08T09:43:09.167Z,26.39
2018-07-08T09:45:38.252Z,26.21
2018-07-08T09:48:07.446Z,25.95
2018-07-08T09:50:36.625Z,25.74
2018-07-08T09:53:05.975Z,25.55
2018-07-08T09:55:35.243Z,25.46
2018-07-08T09:58:04.573Z,25.41
2018-07-08T10:00:33.326Z,25.37
2018-07-08T10:03:02.458Z,25.27
2018-07-08T10:05:31.300Z,25.15
2018-07-08T10:08:00.333Z,25.32
2018-07-08T10:10:29.517Z,26.75
2018-07-08T10:12:58.789Z,28.33
2018-07-08T10:15:27.569Z,29.08
2018-07-08T10:17:56.766Z,30.55
2018-07-08T10:20:25.960Z,32.32
2018-07-08T10:22:55.050Z,32.69
2018-07-08T10:25:24.255Z,33.00
2018-07-08T10:28:02.732Z,33.33
2018-07-08T10:30:31.995Z,31.45
2018-07-08T10:33:01.165Z,31.64
2018-07-08T10:35:41.055Z,30.90
2018-07-08T10:38:10.419Z,30.31
2018-07-08T10:40:39.705Z,31.21
2018-07-08T10:43:08.726Z,32.69
2018-07-08T10:45:38.036Z,34.16
2018-07-08T10:48:07.922Z,35.28
2018-07-08T10:50:37.204Z,34.90
2018-07-08T10:53:06.467Z,33.90
2018-07-08T10:55:35.615Z,32.86
2018-07-08T10:58:04.433Z,31.81
2018-07-08T11:00:33.476Z,31.72
2018-07-08T11:03:02.771Z,32.45
2018-07-08T11:05:31.778Z,33.45
2018-07-08T11:08:00.794Z,34.25
2018-07-08T11:10:29.993Z,34.60
2018-07-08T11:12:59.046Z,34.01
2018-07-08T11:15:27.954Z,33.66
2018-07-08T11:17:57.279Z,33.22
2018-07-08T11:20:26.262Z,33.14
2018-07-08T11:22:55.202Z,33.60
2018-07-08T11:25:24.279Z,34.20
2018-07-08T11:27:53.347Z,35.05
2018-07-08T11:30:22.566Z,36.10
2018-07-08T11:32:51.568Z,36.52
2018-07-08T11:35:20.750Z,36.92
2018-07-08T11:37:49.836Z,36.81
2018-07-08T11:40:19.049Z,36.69
2018-07-08T11:42:48.195Z,36.95
2018-07-08T11:45:17.449Z,37.41
2018-07-08T11:47:46.423Z,37.49
2018-07-08T11:50:15.673Z,37.32
2018-07-08T11:52:44.702Z,38.20
2018-07-08T11:55:13.634Z,39.24
2018-07-08T11:57:42.601Z,39.09
2018-07-08T12:00:11.802Z,38.15
2018-07-08T12:02:41.207Z,36.86
2018-07-08T12:05:10.266Z,35.49
2018-07-08T12:07:39.418Z,34.21
2018-07-08T12:10:08.625Z,33.14
2018-07-08T12:12:37.650Z,32.01
2018-07-08T12:15:06.966Z,31.10
2018-07-08T12:17:35.992Z,30.32
2018-07-08T12:20:05.275Z,29.73
2018-07-08T12:22:34.456Z,28.95
2018-07-08T12:25:03.592Z,27.82
2018-07-08T12:27:32.769Z,26.98
2018-07-08T12:30:01.590Z,26.39
2018-07-08T12:32:30.846Z,25.84
2018-07-08T12:34:59.955Z,25.32
2018-07-08T12:37:29.049Z,24.86
2018-07-08T12:39:57.971Z,24.46
2018-07-08T12:42:27.163Z,24.12
2018-07-08T12:44:56.370Z,23.90
2018-07-08T12:47:25.599Z,23.64
2018-07-08T12:49:54.741Z,23.30
2018-07-08T12:52:23.710Z,23.03
2018-07-08T12:54:53.622Z,22.86
2018-07-08T12:57:22.671Z,22.68
2018-07-08T12:59:51.950Z,22.51
2018-07-08T13:02:21.260Z,22.45
2018-07-08T13:04:50.623Z,22.41
2018-07-08T13:07:19.486Z,22.37
2018-07-08T13:09:48.574Z,22.34
2018-07-08T13:12:17.922Z,22.34
2018-07-08T13:14:47.138Z,22.39
2018-07-08T13:17:16.435Z,22.35
2018-07-08T13:19:45.394Z,22.29
2018-07-08T13:22:14.336Z,22.15
2018-07-08T13:24:43.486Z,21.93
2018-07-08T13:27:12.319Z,21.73
2018-07-08T13:29:41.279Z,21.62
2018-07-08T13:32:10.436Z,21.51
2018-07-08T13:34:39.489Z,21.43
2018-07-08T13:37:08.585Z,21.31
2018-07-08T13:39:37.878Z,21.18
2018-07-08T13:42:06.675Z,21.02
2018-07-08T13:44:35.892Z,20.75
2018-07-08T13:47:05.212Z,20.55
2018-07-08T13:49:34.878Z,20.37
2018-07-08T13:52:04.205Z,20.22
2018-07-08T13:54:33.330Z,20.13
2018-07-08T13:57:02.429Z,19.98
2018-07-08T13:59:31.514Z,19.93
2018-07-08T14:02:00.743Z,19.91
2018-07-08T14:04:29.656Z,19.87
2018-07-08T14:06:59.129Z,19.82
2018-07-08T14:09:28.319Z,19.79
2018-07-08T14:11:57.574Z,19.80
2018-07-08T14:14:26.700Z,19.74
2018-07-08T14:16:55.826Z,19.69
2018-07-08T14:19:24.980Z,19.68
2018-07-08T14:21:54.267Z,19.67
2018-07-08T14:24:23.200Z,19.65
2018-07-08T14:26:52.576Z,19.65
2018-07-08T14:29:21.667Z,19.65
2018-07-08T14:31:50.797Z,19.68
2018-07-08T14:34:20.047Z,19.71
2018-07-08T14:36:48.963Z,19.75
2018-07-08T14:39:18.073Z,19.80
2018-07-08T14:41:46.922Z,19.88
2018-07-08T14:44:15.879Z,19.96
2018-07-08T14:46:45.216Z,20.04
2018-07-08T14:49:15.122Z,20.10
2018-07-08T14:51:44.018Z,20.20
2018-07-08T14:54:13.010Z,20.31
2018-07-08T14:56:42.240Z,20.41
2018-07-08T14:59:11.346Z,20.54
2018-07-08T15:01:40.843Z,20.65
2018-07-08T15:04:09.817Z,20.75
2018-07-08T15:06:38.993Z,20.87
2018-07-08T15:09:09.911Z,20.97
2018-07-08T15:11:39.139Z,21.02
2018-07-08T15:14:08.596Z,21.10
2018-07-08T15:16:37.787Z,21.16
2018-07-08T15:19:07.427Z,21.20
2018-07-08T15:21:36.425Z,21.24
2018-07-08T15:24:05.553Z,21.28
2018-07-08T15:26:34.796Z,21.36
2018-07-08T15:29:04.008Z,21.38
2018-07-08T15:31:33.262Z,21.39
2018-07-08T15:34:02.401Z,21.38
2018-07-08T15:36:31.458Z,21.36
2018-07-08T15:39:00.715Z,21.35
2018-07-08T15:41:29.678Z,21.38
2018-07-08T15:43:58.631Z,21.43
2018-07-08T15:46:27.993Z,21.44
2018-07-08T15:48:57.157Z,21.50
2018-07-08T15:51:26.225Z,21.50
2018-07-08T15:53:55.259Z,21.61
2018-07-08T15:56:24.459Z,21.65
2018-07-08T15:58:53.692Z,21.75
2018-07-08T16:01:22.843Z,21.90
2018-07-08T16:03:51.998Z,21.93
2018-07-08T16:06:21.306Z,21.93
2018-07-08T16:08:50.523Z,21.97
2018-07-08T16:11:19.532Z,21.94
2018-07-08T16:13:48.462Z,21.97
2018-07-08T16:16:17.470Z,21.95
2018-07-08T16:18:47.324Z,21.93
2018-07-08T16:21:16.558Z,21.93
2018-07-08T16:23:46.399Z,21.91
2018-07-08T16:26:15.534Z,21.91
2018-07-08T16:28:44.868Z,21.94
2018-07-08T16:31:13.664Z,21.93
2018-07-08T16:33:42.821Z,21.92
2018-07-08T16:36:11.813Z,21.92
2018-07-08T16:38:40.674Z,21.94
2018-07-08T16:41:09.807Z,21.98
2018-07-08T16:43:39.152Z,21.95
2018-07-08T16:46:08.445Z,21.93
2018-07-08T16:48:37.810Z,21.91
2018-07-08T16:51:06.802Z,21.87
2018-07-08T16:53:35.790Z,21.78
2018-07-08T16:56:04.921Z,21.70
2018-07-08T16:58:34.223Z,21.71
2018-07-08T17:01:03.545Z,21.67
2018-07-08T17:03:32.775Z,21.60
2018-07-08T17:06:02.035Z,21.56
2018-07-08T17:08:31.243Z,21.57
2018-07-08T17:11:00.496Z,21.53
2018-07-08T17:13:29.730Z,21.49
2018-07-08T17:15:58.672Z,21.42
2018-07-08T17:18:27.789Z,21.33
2018-07-08T17:20:57.018Z,21.22
2018-07-08T17:23:25.989Z,21.17
2018-07-08T17:25:55.116Z,21.05
2018-07-08T17:28:24.442Z,21.13
2018-07-08T17:30:53.294Z,21.14
2018-07-08T17:33:22.665Z,21.15
2018-07-08T17:35:51.855Z,21.10
2018-07-08T17:38:22.092Z,21.07
2018-07-08T17:40:51.450Z,21.04
2018-07-08T17:43:20.356Z,20.99
2018-07-08T17:45:50.157Z,21.06
2018-07-08T17:48:19.282Z,21.07
2018-07-08T17:50:48.513Z,21.00
2018-07-08T17:53:17.676Z,20.97
2018-07-08T17:55:46.494Z,20.91
2018-07-08T17:58:15.792Z,20.89
2018-07-08T18:00:45.054Z,20.85
2018-07-08T18:03:14.393Z,20.75
2018-07-08T18:05:43.344Z,20.60
2018-07-08T18:08:12.297Z,20.53
2018-07-08T18:10:41.662Z,20.48
2018-07-08T18:13:10.629Z,20.41
2018-07-08T18:15:40.391Z,20.38
2018-07-08T18:18:10.898Z,20.40
2018-07-08T18:20:40.211Z,20.42
2018-07-08T18:23:09.132Z,20.43
2018-07-08T18:25:38.355Z,20.46
2018-07-08T18:28:07.543Z,20.51
2018-07-08T18:30:37.395Z,20.54
2018-07-08T18:33:06.976Z,20.58
2018-07-08T18:35:36.325Z,20.61
2018-07-08T18:38:05.823Z,20.69
2018-07-08T18:40:34.910Z,20.83
2018-07-08T18:43:04.243Z,20.93
2018-07-08T18:45:34.570Z,21.01
2018-07-08T18:48:04.090Z,21.06
2018-07-08T18:50:33.179Z,21.15
2018-07-08T18:53:01.939Z,21.21
2018-07-08T18:55:31.122Z,21.27
2018-07-08T18:58:00.564Z,21.26
2018-07-08T19:00:29.919Z,21.29
2018-07-08T19:02:59.803Z,21.33
2018-07-08T19:05:28.708Z,21.34
2018-07-08T19:07:57.742Z,21.36
2018-07-08T19:10:26.823Z,21.36
2018-07-08T19:12:55.963Z,21.34
2018-07-08T19:15:25.218Z,21.29
2018-07-08T19:17:54.533Z,21.25
2018-07-08T19:20:23.775Z,21.20
2018-07-08T19:22:52.981Z,21.13
2018-07-08T19:25:22.189Z,21.09
2018-07-08T19:27:51.119Z,21.03
2018-07-08T19:30:20.110Z,20.98
2018-07-08T19:32:49.531Z,21.00
2018-07-08T19:35:18.716Z,21.00
2018-07-08T19:37:47.813Z,20.98
2018-07-08T19:40:16.854Z,21.00
2018-07-08T19:42:46.165Z,21.01
2018-07-08T19:45:15.403Z,21.02
2018-07-08T19:47:44.762Z,21.02
2018-07-08T19:50:13.535Z,21.03
2018-07-08T19:52:42.798Z,21.00
2018-07-08T19:55:12.082Z,20.98
2018-07-08T19:57:41.142Z,20.98
2018-07-08T20:00:10.516Z,20.96
2018-07-08T20:02:39.634Z,20.94
2018-07-08T20:05:08.918Z,20.97
2018-07-08T20:07:38.353Z,20.98
2018-07-08T20:10:07.352Z,21.01
2018-07-08T20:12:36.648Z,21.05
2018-07-08T20:15:05.944Z,21.10
2018-07-08T20:17:35.749Z,21.12
2018-07-08T20:20:04.980Z,21.13
2018-07-08T20:22:33.966Z,21.17
2018-07-08T20:25:02.742Z,21.15
2018-07-08T20:27:31.693Z,21.19
2018-07-08T20:30:00.851Z,21.22
2018-07-08T20:32:30.136Z,21.22
2018-07-08T20:34:59.754Z,21.25
2018-07-08T20:37:29.045Z,21.25
2018-07-08T20:39:58.225Z,21.26
2018-07-08T20:42:27.346Z,21.28
2018-07-08T20:44:56.589Z,21.25
2018-07-08T20:47:25.827Z,21.27
2018-07-08T20:49:54.987Z,21.27
2018-07-08T20:52:24.167Z,21.28
2018-07-08T20:54:53.443Z,21.24
2018-07-08T20:57:22.656Z,21.21
2018-07-08T20:59:52.278Z,21.16
2018-07-08T21:02:21.429Z,21.12
2018-07-08T21:04:50.403Z,21.09
2018-07-08T21:07:19.740Z,21.11
2018-07-08T21:09:48.954Z,21.08
2018-07-08T21:12:18.226Z,21.04
2018-07-08T21:14:47.683Z,21.03
2018-07-08T21:17:16.838Z,20.99
2018-07-08T21:19:45.998Z,20.97
2018-07-08T21:22:15.358Z,20.96
2018-07-08T21:24:44.660Z,20.98
2018-07-08T21:27:13.749Z,20.96
2018-07-08T21:29:42.834Z,20.93
2018-07-08T21:32:12.050Z,20.88
2018-07-08T21:34:41.350Z,20.83
2018-07-08T21:37:10.647Z,20.80
2018-07-08T21:39:39.804Z,20.77
2018-07-08T21:42:09.043Z,20.79
2018-07-08T21:44:38.674Z,20.79
2018-07-08T21:47:07.632Z,20.78
2018-07-08T21:49:36.663Z,20.79
2018-07-08T21:52:05.692Z,20.78
2018-07-08T21:54:34.857Z,20.77
2018-07-08T21:57:03.833Z,20.75
2018-07-08T21:59:33.123Z,20.69
2018-07-08T22:02:04.760Z,20.68
2018-07-08T22:04:34.122Z,20.71
2018-07-08T22:07:08.162Z,20.72
2018-07-08T22:09:36.983Z,20.71
2018-07-08T22:12:06.261Z,20.71
2018-07-08T22:14:35.419Z,20.71
2018-07-08T22:17:04.648Z,20.68
2018-07-08T22:19:33.692Z,20.71
2018-07-08T22:22:03.285Z,20.70
2018-07-08T22:24:32.748Z,20.68
2018-07-08T22:27:01.878Z,20.72
2018-07-08T22:29:31.148Z,20.81
2018-07-08T22:32:00.499Z,20.83
2018-07-08T22:34:29.592Z,20.85
2018-07-08T22:36:58.782Z,20.88
2018-07-08T22:39:27.947Z,20.81
2018-07-08T22:41:57.217Z,20.88
2018-07-08T22:44:26.532Z,20.92
2018-07-08T22:46:55.794Z,20.93
2018-07-08T22:49:24.858Z,20.92
2018-07-08T22:51:53.964Z,20.89
2018-07-08T22:54:23.158Z,20.91
2018-07-08T22:56:51.927Z,20.87
2018-07-08T22:59:20.906Z,20.88
2018-07-08T23:03:03.600Z,20.91
2018-07-08T23:05:32.564Z,20.87
2018-07-08T23:08:01.643Z,20.86
2018-07-08T23:10:31.074Z,20.88
2018-07-08T23:13:00.374Z,20.90
2018-07-08T23:15:29.437Z,20.88
2018-07-08T23:17:58.731Z,20.83
2018-07-08T23:20:28.070Z,20.85
2018-07-08T23:22:59.306Z,20.82
2018-07-08T23:25:28.282Z,20.79
2018-07-08T23:27:57.742Z,20.78
2018-07-08T23:30:26.826Z,20.78
2018-07-08T23:32:55.790Z,20.76
2018-07-08T23:35:24.714Z,20.73
2018-07-08T23:37:54.376Z,20.78
2018-07-08T23:40:23.571Z,20.80
2018-07-08T23:42:52.938Z,20.84
2018-07-08T23:45:21.878Z,20.91
2018-07-08T23:47:50.703Z,20.91
2018-07-08T23:50:19.942Z,20.91
2018-07-08T23:52:49.275Z,20.93
2018-07-08T23:55:18.488Z,20.97
2018-07-08T23:57:47.660Z,20.97
